sensor_id;sensor_type;location;lat;lon;timestamp;P1;durP1;ratioP1;P2;durP2;ratioP2
21611;SDS011;47005;52.292;13.452;2023-04-28T00:00:25;12.27;;;5.37;;
21611;SDS011;47005;52.292;13.452;2023-04-28T00:02:51;8.80;;;4.87;;
21611;SDS011;47005;52.292;13.452;2023-04-28T00:05:18;13.17;;;5.10;;
21611;SDS011;47005;52.292;13.452;2023-04-28T00:07:43;10.60;;;4.97;;
21611;SDS011;47005;52.292;13.452;2023-04-28T00:10:09;8.60;;;4.60;;
21611;SDS011;47005;52.292;13.452;2023-04-28T00:12:35;8.13;;;4.33;;
21611;SDS011;47005;52.292;13.452;2023-04-28T00:15:01;7.67;;;4.80;;
21611;SDS011;47005;52.292;13.452;2023-04-28T00:17:27;8.80;;;4.57;;
21611;SDS011;47005;52.292;13.452;2023-04-28T00:19:53;8.80;;;4.90;;
21611;SDS011;47005;52.292;13.452;2023-04-28T00:22:18;11.70;;;4.50;;
21611;SDS011;47005;52.292;13.452;2023-04-28T00:24:44;7.23;;;4.27;;
21611;SDS011;47005;52.292;13.452;2023-04-28T00:27:10;7.03;;;3.80;;
21611;SDS011;47005;52.292;13.452;2023-04-28T00:29:36;7.00;;;3.70;;
21611;SDS011;47005;52.292;13.452;2023-04-28T00:32:02;3.73;;;2.40;;
21611;SDS011;47005;52.292;13.452;2023-04-28T00:34:31;6.13;;;2.90;;
21611;SDS011;47005;52.292;13.452;2023-04-28T00:36:57;7.90;;;3.90;;
21611;SDS011;47005;52.292;13.452;2023-04-28T00:39:23;5.27;;;3.20;;
21611;SDS011;47005;52.292;13.452;2023-04-28T00:41:50;4.50;;;2.87;;
21611;SDS011;47005;52.292;13.452;2023-04-28T00:44:16;7.63;;;3.17;;
21611;SDS011;47005;52.292;13.452;2023-04-28T00:46:41;7.03;;;2.73;;
21611;SDS011;47005;52.292;13.452;2023-04-28T00:49:08;5.03;;;2.93;;
21611;SDS011;47005;52.292;13.452;2023-04-28T00:51:33;5.47;;;2.93;;
21611;SDS011;47005;52.292;13.452;2023-04-28T00:53:59;3.70;;;2.70;;
21611;SDS011;47005;52.292;13.452;2023-04-28T00:56:25;5.83;;;3.20;;
21611;SDS011;47005;52.292;13.452;2023-04-28T00:58:55;8.20;;;3.30;;
21611;SDS011;47005;52.292;13.452;2023-04-28T01:01:21;4.50;;;3.13;;
21611;SDS011;47005;52.292;13.452;2023-04-28T01:03:47;7.10;;;3.40;;
21611;SDS011;47005;52.292;13.452;2023-04-28T01:06:13;4.93;;;3.13;;
21611;SDS011;47005;52.292;13.452;2023-04-28T01:08:40;6.43;;;3.13;;
21611;SDS011;47005;52.292;13.452;2023-04-28T01:11:07;8.13;;;2.90;;
21611;SDS011;47005;52.292;13.452;2023-04-28T01:13:38;8.80;;;3.77;;
21611;SDS011;47005;52.292;13.452;2023-04-28T01:16:04;4.53;;;3.03;;
21611;SDS011;47005;52.292;13.452;2023-04-28T01:18:31;4.73;;;3.03;;
21611;SDS011;47005;52.292;13.452;2023-04-28T01:20:57;6.43;;;3.17;;
21611;SDS011;47005;52.292;13.452;2023-04-28T01:23:23;7.07;;;3.73;;
21611;SDS011;47005;52.292;13.452;2023-04-28T01:25:49;5.47;;;3.07;;
21611;SDS011;47005;52.292;13.452;2023-04-28T01:28:14;7.50;;;3.40;;
21611;SDS011;47005;52.292;13.452;2023-04-28T01:30:40;7.67;;;3.03;;
21611;SDS011;47005;52.292;13.452;2023-04-28T01:33:06;5.97;;;3.67;;
21611;SDS011;47005;52.292;13.452;2023-04-28T01:35:32;7.50;;;3.40;;
21611;SDS011;47005;52.292;13.452;2023-04-28T01:37:57;7.33;;;3.20;;
21611;SDS011;47005;52.292;13.452;2023-04-28T01:40:23;9.13;;;3.50;;
21611;SDS011;47005;52.292;13.452;2023-04-28T01:42:49;6.20;;;2.93;;
21611;SDS011;47005;52.292;13.452;2023-04-28T01:45:15;6.60;;;3.13;;
21611;SDS011;47005;52.292;13.452;2023-04-28T01:47:40;6.37;;;3.57;;
21611;SDS011;47005;52.292;13.452;2023-04-28T01:50:06;8.90;;;3.70;;
21611;SDS011;47005;52.292;13.452;2023-04-28T01:52:32;6.10;;;3.47;;
21611;SDS011;47005;52.292;13.452;2023-04-28T01:54:58;5.27;;;3.60;;
21611;SDS011;47005;52.292;13.452;2023-04-28T01:57:24;8.17;;;2.97;;
21611;SDS011;47005;52.292;13.452;2023-04-28T01:59:50;6.17;;;3.20;;
21611;SDS011;47005;52.292;13.452;2023-04-28T02:02:16;5.70;;;3.20;;
21611;SDS011;47005;52.292;13.452;2023-04-28T02:04:42;6.13;;;3.60;;
21611;SDS011;47005;52.292;13.452;2023-04-28T02:07:08;5.37;;;3.70;;
21611;SDS011;47005;52.292;13.452;2023-04-28T02:09:33;10.27;;;4.30;;
21611;SDS011;47005;52.292;13.452;2023-04-28T02:11:59;5.80;;;3.83;;
21611;SDS011;47005;52.292;13.452;2023-04-28T02:14:26;8.83;;;3.87;;
21611;SDS011;47005;52.292;13.452;2023-04-28T02:16:52;6.20;;;3.60;;
21611;SDS011;47005;52.292;13.452;2023-04-28T02:19:18;5.70;;;3.87;;
21611;SDS011;47005;52.292;13.452;2023-04-28T02:21:53;9.23;;;4.17;;
21611;SDS011;47005;52.292;13.452;2023-04-28T02:24:18;6.13;;;4.03;;
21611;SDS011;47005;52.292;13.452;2023-04-28T02:26:44;10.17;;;4.37;;
21611;SDS011;47005;52.292;13.452;2023-04-28T02:29:09;7.33;;;3.93;;
21611;SDS011;47005;52.292;13.452;2023-04-28T02:31:35;7.53;;;4.07;;
21611;SDS011;47005;52.292;13.452;2023-04-28T02:34:01;4.87;;;3.50;;
21611;SDS011;47005;52.292;13.452;2023-04-28T02:36:27;6.87;;;3.60;;
21611;SDS011;47005;52.292;13.452;2023-04-28T02:38:52;9.77;;;3.47;;
21611;SDS011;47005;52.292;13.452;2023-04-28T02:41:18;5.87;;;3.53;;
21611;SDS011;47005;52.292;13.452;2023-04-28T02:43:44;6.57;;;4.20;;
21611;SDS011;47005;52.292;13.452;2023-04-28T02:46:09;7.43;;;4.13;;
21611;SDS011;47005;52.292;13.452;2023-04-28T02:48:35;4.40;;;3.03;;
21611;SDS011;47005;52.292;13.452;2023-04-28T02:51:01;6.50;;;3.53;;
21611;SDS011;47005;52.292;13.452;2023-04-28T02:53:27;6.10;;;3.47;;
21611;SDS011;47005;52.292;13.452;2023-04-28T02:55:53;5.53;;;3.50;;
21611;SDS011;47005;52.292;13.452;2023-04-28T02:58:18;5.80;;;2.93;;
21611;SDS011;47005;52.292;13.452;2023-04-28T03:00:44;4.47;;;3.03;;
21611;SDS011;47005;52.292;13.452;2023-04-28T03:03:11;8.00;;;3.87;;
21611;SDS011;47005;52.292;13.452;2023-04-28T03:05:36;8.97;;;3.53;;
21611;SDS011;47005;52.292;13.452;2023-04-28T03:08:02;7.53;;;3.87;;
21611;SDS011;47005;52.292;13.452;2023-04-28T03:10:28;5.10;;;3.40;;
21611;SDS011;47005;52.292;13.452;2023-04-28T03:12:53;7.07;;;3.67;;
21611;SDS011;47005;52.292;13.452;2023-04-28T03:15:19;5.57;;;3.30;;
21611;SDS011;47005;52.292;13.452;2023-04-28T03:17:45;6.50;;;3.70;;
21611;SDS011;47005;52.292;13.452;2023-04-28T03:20:11;7.77;;;4.07;;
21611;SDS011;47005;52.292;13.452;2023-04-28T03:22:37;4.47;;;2.90;;
21611;SDS011;47005;52.292;13.452;2023-04-28T03:25:02;10.63;;;3.43;;
21611;SDS011;47005;52.292;13.452;2023-04-28T03:27:29;7.30;;;3.27;;
21611;SDS011;47005;52.292;13.452;2023-04-28T03:29:55;10.07;;;3.80;;
21611;SDS011;47005;52.292;13.452;2023-04-28T03:32:21;5.53;;;3.10;;
21611;SDS011;47005;52.292;13.452;2023-04-28T03:34:47;8.40;;;3.33;;
21611;SDS011;47005;52.292;13.452;2023-04-28T03:37:12;8.03;;;3.57;;
21611;SDS011;47005;52.292;13.452;2023-04-28T03:39:38;9.50;;;4.03;;
21611;SDS011;47005;52.292;13.452;2023-04-28T03:42:04;10.13;;;3.70;;
21611;SDS011;47005;52.292;13.452;2023-04-28T03:44:29;5.13;;;2.97;;
21611;SDS011;47005;52.292;13.452;2023-04-28T03:46:55;6.43;;;3.43;;
21611;SDS011;47005;52.292;13.452;2023-04-28T03:49:21;5.73;;;3.40;;
21611;SDS011;47005;52.292;13.452;2023-04-28T03:51:47;6.20;;;3.57;;
21611;SDS011;47005;52.292;13.452;2023-04-28T03:54:14;5.73;;;3.17;;
21611;SDS011;47005;52.292;13.452;2023-04-28T03:56:39;10.97;;;3.87;;
21611;SDS011;47005;52.292;13.452;2023-04-28T03:59:05;6.10;;;2.93;;
21611;SDS011;47005;52.292;13.452;2023-04-28T04:01:31;6.40;;;3.60;;
21611;SDS011;47005;52.292;13.452;2023-04-28T04:03:56;4.57;;;3.03;;
21611;SDS011;47005;52.292;13.452;2023-04-28T04:06:22;10.70;;;3.80;;
21611;SDS011;47005;52.292;13.452;2023-04-28T04:08:47;8.73;;;3.83;;
21611;SDS011;47005;52.292;13.452;2023-04-28T04:11:13;9.03;;;4.00;;
21611;SDS011;47005;52.292;13.452;2023-04-28T04:13:39;6.77;;;3.70;;
21611;SDS011;47005;52.292;13.452;2023-04-28T04:16:04;11.30;;;3.80;;
21611;SDS011;47005;52.292;13.452;2023-04-28T04:18:30;8.13;;;2.87;;
21611;SDS011;47005;52.292;13.452;2023-04-28T04:20:56;8.23;;;3.77;;
21611;SDS011;47005;52.292;13.452;2023-04-28T04:23:22;6.60;;;3.60;;
21611;SDS011;47005;52.292;13.452;2023-04-28T04:25:48;6.40;;;3.43;;
21611;SDS011;47005;52.292;13.452;2023-04-28T04:28:14;10.17;;;3.43;;
21611;SDS011;47005;52.292;13.452;2023-04-28T04:30:39;7.83;;;3.97;;
21611;SDS011;47005;52.292;13.452;2023-04-28T04:33:05;9.53;;;3.80;;
21611;SDS011;47005;52.292;13.452;2023-04-28T04:35:31;9.33;;;4.07;;
21611;SDS011;47005;52.292;13.452;2023-04-28T04:37:57;5.43;;;3.00;;
21611;SDS011;47005;52.292;13.452;2023-04-28T04:40:23;9.07;;;3.87;;
21611;SDS011;47005;52.292;13.452;2023-04-28T04:42:49;9.00;;;3.70;;
21611;SDS011;47005;52.292;13.452;2023-04-28T04:45:15;5.07;;;3.07;;
21611;SDS011;47005;52.292;13.452;2023-04-28T04:47:41;5.40;;;3.17;;
21611;SDS011;47005;52.292;13.452;2023-04-28T04:50:07;6.23;;;3.27;;
21611;SDS011;47005;52.292;13.452;2023-04-28T04:52:34;7.67;;;3.43;;
21611;SDS011;47005;52.292;13.452;2023-04-28T04:55:01;6.73;;;3.43;;
21611;SDS011;47005;52.292;13.452;2023-04-28T04:57:26;9.33;;;3.77;;
21611;SDS011;47005;52.292;13.452;2023-04-28T04:59:52;5.47;;;3.40;;
21611;SDS011;47005;52.292;13.452;2023-04-28T05:02:18;8.47;;;3.30;;
21611;SDS011;47005;52.292;13.452;2023-04-28T05:04:44;8.37;;;3.87;;
21611;SDS011;47005;52.292;13.452;2023-04-28T05:07:09;6.33;;;3.77;;
21611;SDS011;47005;52.292;13.452;2023-04-28T05:09:35;6.50;;;3.83;;
21611;SDS011;47005;52.292;13.452;2023-04-28T05:12:00;8.03;;;3.60;;
21611;SDS011;47005;52.292;13.452;2023-04-28T05:14:26;5.10;;;3.70;;
21611;SDS011;47005;52.292;13.452;2023-04-28T05:16:52;6.57;;;3.90;;
21611;SDS011;47005;52.292;13.452;2023-04-28T05:19:17;8.57;;;3.67;;
21611;SDS011;47005;52.292;13.452;2023-04-28T05:21:43;11.37;;;3.97;;
21611;SDS011;47005;52.292;13.452;2023-04-28T05:24:11;5.80;;;3.23;;
21611;SDS011;47005;52.292;13.452;2023-04-28T05:26:37;8.30;;;3.70;;
21611;SDS011;47005;52.292;13.452;2023-04-28T05:29:03;8.73;;;4.20;;
21611;SDS011;47005;52.292;13.452;2023-04-28T05:31:29;10.43;;;4.47;;
21611;SDS011;47005;52.292;13.452;2023-04-28T05:33:55;6.50;;;3.80;;
21611;SDS011;47005;52.292;13.452;2023-04-28T05:36:21;6.53;;;3.43;;
21611;SDS011;47005;52.292;13.452;2023-04-28T05:38:47;7.00;;;3.90;;
21611;SDS011;47005;52.292;13.452;2023-04-28T05:41:13;9.60;;;4.83;;
21611;SDS011;47005;52.292;13.452;2023-04-28T05:43:38;8.43;;;3.70;;
21611;SDS011;47005;52.292;13.452;2023-04-28T05:46:04;11.37;;;3.90;;
21611;SDS011;47005;52.292;13.452;2023-04-28T05:48:30;6.13;;;3.57;;
21611;SDS011;47005;52.292;13.452;2023-04-28T05:50:55;8.80;;;3.83;;
21611;SDS011;47005;52.292;13.452;2023-04-28T05:53:21;5.93;;;3.57;;
21611;SDS011;47005;52.292;13.452;2023-04-28T05:55:47;11.87;;;4.40;;
21611;SDS011;47005;52.292;13.452;2023-04-28T05:58:12;9.03;;;3.87;;
21611;SDS011;47005;52.292;13.452;2023-04-28T06:00:38;6.70;;;3.93;;
21611;SDS011;47005;52.292;13.452;2023-04-28T06:03:04;5.90;;;3.43;;
21611;SDS011;47005;52.292;13.452;2023-04-28T06:05:29;7.30;;;4.33;;
21611;SDS011;47005;52.292;13.452;2023-04-28T06:07:55;14.23;;;4.20;;
21611;SDS011;47005;52.292;13.452;2023-04-28T06:10:21;7.10;;;3.33;;
21611;SDS011;47005;52.292;13.452;2023-04-28T06:12:47;7.93;;;3.57;;
21611;SDS011;47005;52.292;13.452;2023-04-28T06:15:13;8.60;;;3.43;;
21611;SDS011;47005;52.292;13.452;2023-04-28T06:17:38;8.37;;;3.77;;
21611;SDS011;47005;52.292;13.452;2023-04-28T06:20:05;5.90;;;4.07;;
21611;SDS011;47005;52.292;13.452;2023-04-28T06:22:31;6.87;;;4.03;;
21611;SDS011;47005;52.292;13.452;2023-04-28T06:24:57;6.43;;;3.43;;
21611;SDS011;47005;52.292;13.452;2023-04-28T06:27:23;10.77;;;4.30;;
21611;SDS011;47005;52.292;13.452;2023-04-28T06:29:48;4.40;;;3.10;;
21611;SDS011;47005;52.292;13.452;2023-04-28T06:32:14;5.77;;;3.47;;
21611;SDS011;47005;52.292;13.452;2023-04-28T06:34:40;7.33;;;4.07;;
21611;SDS011;47005;52.292;13.452;2023-04-28T06:37:06;9.77;;;3.73;;
21611;SDS011;47005;52.292;13.452;2023-04-28T06:39:32;6.03;;;3.43;;
21611;SDS011;47005;52.292;13.452;2023-04-28T06:41:57;8.03;;;3.97;;
21611;SDS011;47005;52.292;13.452;2023-04-28T06:44:23;6.20;;;3.17;;
21611;SDS011;47005;52.292;13.452;2023-04-28T06:46:49;9.93;;;3.47;;
21611;SDS011;47005;52.292;13.452;2023-04-28T06:49:14;6.10;;;3.23;;
21611;SDS011;47005;52.292;13.452;2023-04-28T06:51:40;5.77;;;3.00;;
21611;SDS011;47005;52.292;13.452;2023-04-28T06:54:09;10.33;;;4.17;;
21611;SDS011;47005;52.292;13.452;2023-04-28T06:56:35;9.27;;;3.63;;
21611;SDS011;47005;52.292;13.452;2023-04-28T06:59:01;6.53;;;3.07;;
21611;SDS011;47005;52.292;13.452;2023-04-28T07:01:27;7.80;;;3.00;;
21611;SDS011;47005;52.292;13.452;2023-04-28T07:03:53;9.70;;;3.00;;
21611;SDS011;47005;52.292;13.452;2023-04-28T07:06:18;4.67;;;2.53;;
21611;SDS011;47005;52.292;13.452;2023-04-28T07:08:44;9.17;;;3.23;;
21611;SDS011;47005;52.292;13.452;2023-04-28T07:11:10;6.63;;;3.13;;
21611;SDS011;47005;52.292;13.452;2023-04-28T07:13:36;4.43;;;2.93;;
21611;SDS011;47005;52.292;13.452;2023-04-28T07:16:02;5.00;;;3.03;;
21611;SDS011;47005;52.292;13.452;2023-04-28T07:18:28;4.20;;;2.63;;
21611;SDS011;47005;52.292;13.452;2023-04-28T07:20:54;4.27;;;2.87;;
21611;SDS011;47005;52.292;13.452;2023-04-28T07:23:20;7.60;;;3.67;;
21611;SDS011;47005;52.292;13.452;2023-04-28T07:25:45;7.53;;;3.33;;
21611;SDS011;47005;52.292;13.452;2023-04-28T07:28:11;8.57;;;3.57;;
21611;SDS011;47005;52.292;13.452;2023-04-28T07:30:37;6.70;;;2.53;;
21611;SDS011;47005;52.292;13.452;2023-04-28T07:33:03;6.17;;;3.27;;
21611;SDS011;47005;52.292;13.452;2023-04-28T07:35:32;5.83;;;3.00;;
21611;SDS011;47005;52.292;13.452;2023-04-28T07:37:57;10.10;;;2.80;;
21611;SDS011;47005;52.292;13.452;2023-04-28T07:40:23;8.27;;;3.07;;
21611;SDS011;47005;52.292;13.452;2023-04-28T07:42:49;5.67;;;3.53;;
21611;SDS011;47005;52.292;13.452;2023-04-28T07:45:15;6.03;;;3.03;;
21611;SDS011;47005;52.292;13.452;2023-04-28T07:47:41;6.90;;;3.73;;
21611;SDS011;47005;52.292;13.452;2023-04-28T07:50:07;5.63;;;3.17;;
21611;SDS011;47005;52.292;13.452;2023-04-28T07:52:33;5.17;;;2.90;;
21611;SDS011;47005;52.292;13.452;2023-04-28T07:54:59;7.13;;;3.37;;
21611;SDS011;47005;52.292;13.452;2023-04-28T07:57:26;5.43;;;3.27;;
21611;SDS011;47005;52.292;13.452;2023-04-28T07:59:53;5.70;;;3.47;;
21611;SDS011;47005;52.292;13.452;2023-04-28T08:02:19;5.20;;;3.00;;
21611;SDS011;47005;52.292;13.452;2023-04-28T08:04:45;11.27;;;3.07;;
21611;SDS011;47005;52.292;13.452;2023-04-28T08:07:11;6.10;;;3.27;;
21611;SDS011;47005;52.292;13.452;2023-04-28T08:09:37;6.73;;;3.27;;
21611;SDS011;47005;52.292;13.452;2023-04-28T08:12:04;5.03;;;2.97;;
21611;SDS011;47005;52.292;13.452;2023-04-28T08:14:30;5.53;;;2.83;;
21611;SDS011;47005;52.292;13.452;2023-04-28T08:16:56;7.27;;;3.40;;
21611;SDS011;47005;52.292;13.452;2023-04-28T08:19:22;9.67;;;2.97;;
21611;SDS011;47005;52.292;13.452;2023-04-28T08:21:48;9.23;;;3.30;;
21611;SDS011;47005;52.292;13.452;2023-04-28T08:24:13;4.10;;;2.53;;
21611;SDS011;47005;52.292;13.452;2023-04-28T08:26:39;6.93;;;2.30;;
21611;SDS011;47005;52.292;13.452;2023-04-28T08:29:05;7.83;;;3.20;;
21611;SDS011;47005;52.292;13.452;2023-04-28T08:31:30;4.80;;;2.73;;
21611;SDS011;47005;52.292;13.452;2023-04-28T08:33:56;4.97;;;2.77;;
21611;SDS011;47005;52.292;13.452;2023-04-28T08:36:22;6.10;;;3.47;;
21611;SDS011;47005;52.292;13.452;2023-04-28T08:38:50;8.60;;;2.80;;
21611;SDS011;47005;52.292;13.452;2023-04-28T08:41:16;5.00;;;2.77;;
21611;SDS011;47005;52.292;13.452;2023-04-28T08:43:43;11.98;;;3.50;;
21611;SDS011;47005;52.292;13.452;2023-04-28T08:46:09;8.20;;;3.40;;
21611;SDS011;47005;52.292;13.452;2023-04-28T08:48:39;7.90;;;2.93;;
21611;SDS011;47005;52.292;13.452;2023-04-28T08:51:06;7.90;;;2.90;;
21611;SDS011;47005;52.292;13.452;2023-04-28T08:53:35;7.37;;;3.17;;
21611;SDS011;47005;52.292;13.452;2023-04-28T08:56:04;8.48;;;4.10;;
21611;SDS011;47005;52.292;13.452;2023-04-28T08:58:31;9.20;;;3.80;;
21611;SDS011;47005;52.292;13.452;2023-04-28T09:00:59;10.82;;;3.13;;
21611;SDS011;47005;52.292;13.452;2023-04-28T09:03:28;7.53;;;2.95;;
21611;SDS011;47005;52.292;13.452;2023-04-28T09:05:54;8.93;;;3.05;;
21611;SDS011;47005;52.292;13.452;2023-04-28T09:08:20;5.35;;;3.25;;
21611;SDS011;47005;52.292;13.452;2023-04-28T09:10:46;5.07;;;2.63;;
21611;SDS011;47005;52.292;13.452;2023-04-28T09:13:23;6.05;;;2.63;;
21611;SDS011;47005;52.292;13.452;2023-04-28T09:15:49;8.38;;;3.25;;
21611;SDS011;47005;52.292;13.452;2023-04-28T09:18:23;6.40;;;3.78;;
21611;SDS011;47005;52.292;13.452;2023-04-28T09:20:48;5.10;;;2.95;;
21611;SDS011;47005;52.292;13.452;2023-04-28T09:23:18;10.10;;;2.95;;
21611;SDS011;47005;52.292;13.452;2023-04-28T09:28:39;8.57;;;3.58;;
21611;SDS011;47005;52.292;13.452;2023-04-28T09:31:05;4.95;;;2.97;;
21611;SDS011;47005;52.292;13.452;2023-04-28T09:33:58;8.35;;;3.90;;
21611;SDS011;47005;52.292;13.452;2023-04-28T09:36:27;6.60;;;3.47;;
21611;SDS011;47005;52.292;13.452;2023-04-28T09:38:56;7.75;;;3.60;;
21611;SDS011;47005;52.292;13.452;2023-04-28T09:41:57;6.47;;;3.03;;
21611;SDS011;47005;52.292;13.452;2023-04-28T09:44:17;5.53;;;3.60;;
21611;SDS011;47005;52.292;13.452;2023-04-28T09:46:45;8.77;;;3.20;;
21611;SDS011;47005;52.292;13.452;2023-04-28T09:49:12;8.65;;;3.80;;
21611;SDS011;47005;52.292;13.452;2023-04-28T09:51:38;5.78;;;2.88;;
21611;SDS011;47005;52.292;13.452;2023-04-28T09:54:04;6.68;;;3.63;;
21611;SDS011;47005;52.292;13.452;2023-04-28T09:56:31;16.30;;;3.72;;
21611;SDS011;47005;52.292;13.452;2023-04-28T09:58:59;7.65;;;3.63;;
21611;SDS011;47005;52.292;13.452;2023-04-28T10:01:26;6.05;;;3.22;;
21611;SDS011;47005;52.292;13.452;2023-04-28T10:03:56;6.68;;;3.38;;
21611;SDS011;47005;52.292;13.452;2023-04-28T10:06:24;6.40;;;3.35;;
21611;SDS011;47005;52.292;13.452;2023-04-28T10:08:51;7.47;;;3.80;;
21611;SDS011;47005;52.292;13.452;2023-04-28T10:11:17;7.63;;;3.83;;
21611;SDS011;47005;52.292;13.452;2023-04-28T10:13:44;12.68;;;3.35;;
21611;SDS011;47005;52.292;13.452;2023-04-28T10:16:11;5.68;;;3.13;;
21611;SDS011;47005;52.292;13.452;2023-04-28T10:18:41;8.80;;;4.18;;
21611;SDS011;47005;52.292;13.452;2023-04-28T10:21:07;6.55;;;3.42;;
21611;SDS011;47005;52.292;13.452;2023-04-28T10:23:43;6.63;;;2.97;;
21611;SDS011;47005;52.292;13.452;2023-04-28T10:26:19;8.60;;;3.55;;
21611;SDS011;47005;52.292;13.452;2023-04-28T10:28:50;7.95;;;4.60;;
21611;SDS011;47005;52.292;13.452;2023-04-28T10:31:16;7.18;;;3.80;;
21611;SDS011;47005;52.292;13.452;2023-04-28T10:33:45;6.90;;;3.58;;
21611;SDS011;47005;52.292;13.452;2023-04-28T10:36:17;8.98;;;3.40;;
21611;SDS011;47005;52.292;13.452;2023-04-28T10:39:14;5.38;;;3.35;;
21611;SDS011;47005;52.292;13.452;2023-04-28T10:41:40;9.10;;;4.68;;
21611;SDS011;47005;52.292;13.452;2023-04-28T10:47:03;10.02;;;4.38;;
21611;SDS011;47005;52.292;13.452;2023-04-28T11:00:39;7.82;;;3.65;;
21611;SDS011;47005;52.292;13.452;2023-04-28T11:03:05;9.70;;;3.65;;
21611;SDS011;47005;52.292;13.452;2023-04-28T11:05:31;9.40;;;4.20;;
21611;SDS011;47005;52.292;13.452;2023-04-28T11:13:37;6.53;;;3.92;;
21611;SDS011;47005;52.292;13.452;2023-04-28T11:16:03;7.60;;;3.35;;
21611;SDS011;47005;52.292;13.452;2023-04-28T11:18:47;6.85;;;3.78;;
21611;SDS011;47005;52.292;13.452;2023-04-28T11:21:18;7.55;;;3.53;;
21611;SDS011;47005;52.292;13.452;2023-04-28T11:23:45;7.25;;;3.70;;
21611;SDS011;47005;52.292;13.452;2023-04-28T11:26:11;7.35;;;3.78;;
21611;SDS011;47005;52.292;13.452;2023-04-28T11:31:33;7.18;;;3.70;;
21611;SDS011;47005;52.292;13.452;2023-04-28T11:34:05;6.00;;;3.80;;
21611;SDS011;47005;52.292;13.452;2023-04-28T11:36:36;10.00;;;3.63;;
21611;SDS011;47005;52.292;13.452;2023-04-28T11:39:07;5.30;;;3.67;;
21611;SDS011;47005;52.292;13.452;2023-04-28T11:41:34;8.63;;;4.28;;
21611;SDS011;47005;52.292;13.452;2023-04-28T11:44:11;7.90;;;3.63;;
21611;SDS011;47005;52.292;13.452;2023-04-28T11:46:45;8.63;;;3.72;;
21611;SDS011;47005;52.292;13.452;2023-04-28T11:49:16;8.30;;;4.03;;
21611;SDS011;47005;52.292;13.452;2023-04-28T11:51:43;7.32;;;4.15;;
21611;SDS011;47005;52.292;13.452;2023-04-28T11:54:11;10.60;;;3.67;;
21611;SDS011;47005;52.292;13.452;2023-04-28T11:56:38;8.68;;;3.63;;
21611;SDS011;47005;52.292;13.452;2023-04-28T11:59:06;8.98;;;3.95;;
21611;SDS011;47005;52.292;13.452;2023-04-28T12:01:54;10.52;;;4.35;;
21611;SDS011;47005;52.292;13.452;2023-04-28T12:06:59;7.40;;;3.60;;
21611;SDS011;47005;52.292;13.452;2023-04-28T12:09:27;10.60;;;4.47;;
21611;SDS011;47005;52.292;13.452;2023-04-28T12:11:53;10.10;;;4.00;;
21611;SDS011;47005;52.292;13.452;2023-04-28T12:14:21;9.73;;;3.75;;
21611;SDS011;47005;52.292;13.452;2023-04-28T12:16:50;7.18;;;3.83;;
21611;SDS011;47005;52.292;13.452;2023-04-28T12:19:16;8.98;;;3.83;;
21611;SDS011;47005;52.292;13.452;2023-04-28T12:21:57;7.63;;;3.60;;
21611;SDS011;47005;52.292;13.452;2023-04-28T12:24:32;9.18;;;4.07;;
21611;SDS011;47005;52.292;13.452;2023-04-28T12:27:15;6.43;;;4.00;;
21611;SDS011;47005;52.292;13.452;2023-04-28T12:29:44;9.15;;;4.32;;
21611;SDS011;47005;52.292;13.452;2023-04-28T12:32:12;11.20;;;3.70;;
21611;SDS011;47005;52.292;13.452;2023-04-28T12:34:39;10.82;;;4.47;;
21611;SDS011;47005;52.292;13.452;2023-04-28T12:37:06;6.22;;;3.42;;
21611;SDS011;47005;52.292;13.452;2023-04-28T12:39:39;8.43;;;4.03;;
21611;SDS011;47005;52.292;13.452;2023-04-28T12:42:05;7.47;;;3.88;;
21611;SDS011;47005;52.292;13.452;2023-04-28T12:44:32;11.88;;;5.15;;
21611;SDS011;47005;52.292;13.452;2023-04-28T12:47:00;9.18;;;4.70;;
21611;SDS011;47005;52.292;13.452;2023-04-28T12:49:37;11.05;;;4.78;;
21611;SDS011;47005;52.292;13.452;2023-04-28T12:52:03;9.32;;;4.05;;
21611;SDS011;47005;52.292;13.452;2023-04-28T12:54:30;7.25;;;4.10;;
21611;SDS011;47005;52.292;13.452;2023-04-28T12:56:56;7.43;;;3.78;;
21611;SDS011;47005;52.292;13.452;2023-04-28T12:59:21;10.57;;;4.45;;
21611;SDS011;47005;52.292;13.452;2023-04-28T13:01:48;7.32;;;4.30;;
21611;SDS011;47005;52.292;13.452;2023-04-28T13:04:15;8.77;;;4.47;;
21611;SDS011;47005;52.292;13.452;2023-04-28T13:06:43;6.13;;;4.55;;
21611;SDS011;47005;52.292;13.452;2023-04-28T13:09:10;9.00;;;4.03;;
21611;SDS011;47005;52.292;13.452;2023-04-28T13:11:36;10.85;;;5.15;;
21611;SDS011;47005;52.292;13.452;2023-04-28T13:14:02;7.65;;;3.90;;
21611;SDS011;47005;52.292;13.452;2023-04-28T13:16:31;6.45;;;3.92;;
21611;SDS011;47005;52.292;13.452;2023-04-28T13:18:57;9.52;;;4.45;;
21611;SDS011;47005;52.292;13.452;2023-04-28T13:21:23;5.82;;;3.55;;
21611;SDS011;47005;52.292;13.452;2023-04-28T13:23:50;8.57;;;3.90;;
21611;SDS011;47005;52.292;13.452;2023-04-28T13:26:20;8.70;;;4.18;;
21611;SDS011;47005;52.292;13.452;2023-04-28T13:28:52;8.75;;;3.90;;
21611;SDS011;47005;52.292;13.452;2023-04-28T13:31:18;6.47;;;3.70;;
21611;SDS011;47005;52.292;13.452;2023-04-28T13:33:53;9.57;;;3.70;;
21611;SDS011;47005;52.292;13.452;2023-04-28T13:36:18;7.32;;;3.92;;
21611;SDS011;47005;52.292;13.452;2023-04-28T13:38:44;8.95;;;3.55;;
21611;SDS011;47005;52.292;13.452;2023-04-28T13:41:12;6.25;;;4.13;;
21611;SDS011;47005;52.292;13.452;2023-04-28T13:43:41;9.80;;;3.85;;
21611;SDS011;47005;52.292;13.452;2023-04-28T13:46:07;5.95;;;3.55;;
21611;SDS011;47005;52.292;13.452;2023-04-28T13:48:34;10.10;;;4.38;;
21611;SDS011;47005;52.292;13.452;2023-04-28T13:51:06;9.80;;;3.55;;
21611;SDS011;47005;52.292;13.452;2023-04-28T13:53:32;8.43;;;4.10;;
21611;SDS011;47005;52.292;13.452;2023-04-28T13:55:59;5.45;;;3.63;;
21611;SDS011;47005;52.292;13.452;2023-04-28T13:58:26;7.70;;;3.20;;
21611;SDS011;47005;52.292;13.452;2023-04-28T14:00:52;6.82;;;4.30;;
21611;SDS011;47005;52.292;13.452;2023-04-28T14:03:21;5.78;;;3.67;;
21611;SDS011;47005;52.292;13.452;2023-04-28T14:05:48;8.25;;;4.60;;
21611;SDS011;47005;52.292;13.452;2023-04-28T14:08:14;6.20;;;3.80;;
21611;SDS011;47005;52.292;13.452;2023-04-28T14:10:40;5.60;;;3.97;;
21611;SDS011;47005;52.292;13.452;2023-04-28T14:13:06;6.55;;;4.07;;
21611;SDS011;47005;52.292;13.452;2023-04-28T14:15:32;8.82;;;3.92;;
21611;SDS011;47005;52.292;13.452;2023-04-28T14:17:58;5.95;;;4.13;;
21611;SDS011;47005;52.292;13.452;2023-04-28T14:20:23;13.68;;;4.72;;
21611;SDS011;47005;52.292;13.452;2023-04-28T14:22:49;7.70;;;4.53;;
21611;SDS011;47005;52.292;13.452;2023-04-28T14:25:15;7.95;;;4.68;;
21611;SDS011;47005;52.292;13.452;2023-04-28T14:27:42;6.78;;;4.60;;
21611;SDS011;47005;52.292;13.452;2023-04-28T14:30:08;9.88;;;4.88;;
21611;SDS011;47005;52.292;13.452;2023-04-28T14:32:34;9.77;;;5.30;;
21611;SDS011;47005;52.292;13.452;2023-04-28T14:35:02;8.40;;;4.03;;
21611;SDS011;47005;52.292;13.452;2023-04-28T14:37:29;7.13;;;4.70;;
21611;SDS011;47005;52.292;13.452;2023-04-28T14:39:56;10.90;;;5.53;;
21611;SDS011;47005;52.292;13.452;2023-04-28T14:42:26;8.88;;;4.88;;
21611;SDS011;47005;52.292;13.452;2023-04-28T14:44:52;7.07;;;4.53;;
21611;SDS011;47005;52.292;13.452;2023-04-28T14:47:18;9.80;;;4.82;;
21611;SDS011;47005;52.292;13.452;2023-04-28T14:49:43;8.73;;;4.97;;
21611;SDS011;47005;52.292;13.452;2023-04-28T14:52:10;7.65;;;4.82;;
21611;SDS011;47005;52.292;13.452;2023-04-28T14:54:37;8.80;;;4.50;;
21611;SDS011;47005;52.292;13.452;2023-04-28T14:57:03;7.80;;;4.50;;
21611;SDS011;47005;52.292;13.452;2023-04-28T14:59:29;5.78;;;4.10;;